Time;durP1;ratioP1;P1;durP2;ratioP2;P2;SDS_P1;SDS_P2;PMS_P1;PMS_P2;Temp;Humidity;BMP_temperature;BMP_pressure;BME280_temperature;BME280_humidity;BME280_pressure;Samples;Min_cycle;Max_cycle;Signal;HPM_P1;HPM_P2
2023/09/08 00:02:12;;;;;;;7.43;6.65;;;;;19.20;98770.00;;;;4933783;29;20039;-66
2023/09/08 00:04:39;;;;;;;7.07;6.38;;;;;19.20;98772.00;;;;4934378;29;20139;-66
2023/09/08 00:07:06;;;;;;;9.15;7.15;;;;;19.20;98772.00;;;;4934970;29;20050;-66
2023/09/08 00:09:32;;;;;;;8.75;6.53;;;;;19.20;98773.00;;;;4933745;29;20420;-66
2023/09/08 00:11:59;;;;;;;8.43;6.93;;;;;19.20;98777.00;;;;4935021;29;20122;-66
2023/09/08 00:14:26;;;;;;;10.77;6.75;;;;;19.20;98771.00;;;;4917401;29;20051;-65
2023/09/08 00:16:55;;;;;;;7.43;6.50;;;;;19.20;98774.00;;;;4934593;29;20040;-66
2023/09/08 00:19:23;;;;;;;7.35;6.65;;;;;19.10;98767.00;;;;4935135;29;20419;-65
2023/09/08 00:21:50;;;;;;;9.63;6.63;;;;;19.10;98772.00;;;;4938667;29;20565;-66
2023/09/08 00:24:18;;;;;;;7.75;6.18;;;;;19.10;98769.00;;;;4939766;29;20102;-66
2023/09/08 00:26:45;;;;;;;7.95;7.15;;;;;19.10;98773.00;;;;4941183;29;20036;-65
2023/09/08 00:29:11;;;;;;;8.27;7.20;;;;;19.00;98773.00;;;;4941256;29;20098;-65
2023/09/08 00:31:38;;;;;;;8.73;7.10;;;;;18.90;98768.00;;;;4939623;29;20111;-65
2023/09/08 00:34:06;;;;;;;9.43;6.95;;;;;18.90;98762.00;;;;4939460;29;20071;-66
2023/09/08 00:36:33;;;;;;;9.75;7.07;;;;;18.70;98767.00;;;;4940167;29;20497;-66
2023/09/08 00:39:00;;;;;;;10.60;6.65;;;;;18.60;98764.00;;;;4940016;29;20047;-65
2023/09/08 00:41:27;;;;;;;11.98;6.43;;;;;18.70;98767.00;;;;4941387;29;20043;-65
2023/09/08 00:43:54;;;;;;;7.20;6.40;;;;;18.70;98762.00;;;;4939238;29;20091;-65
2023/09/08 00:46:21;;;;;;;7.72;6.88;;;;;18.60;98759.00;;;;4941347;29;20457;-65
2023/09/08 00:48:48;;;;;;;7.90;6.72;;;;;18.60;98760.00;;;;4941516;29;20513;-65
2023/09/08 00:51:14;;;;;;;9.23;6.38;;;;;18.70;98768.00;;;;4940152;29;20139;-65
2023/09/08 00:53:41;;;;;;;8.07;6.53;;;;;18.80;98764.00;;;;4939111;29;20055;-65
2023/09/08 00:56:10;;;;;;;10.35;6.60;;;;;18.90;98755.00;;;;4924181;29;20497;-65
2023/09/08 00:58:36;;;;;;;8.90;6.70;;;;;18.70;98759.00;;;;4939700;29;20146;-65
2023/09/08 01:01:05;;;;;;;7.63;6.63;;;;;18.70;98765.00;;;;4940822;29;20082;-66
2023/09/08 01:03:32;;;;;;;8.43;6.75;;;;;18.70;98761.00;;;;4939108;29;20048;-66
2023/09/08 01:06:00;;;;;;;9.25;6.88;;;;;18.70;98759.00;;;;4940876;29;20485;-65
2023/09/08 01:08:27;;;;;;;8.60;7.18;;;;;18.70;98761.00;;;;4939819;29;20052;-65
2023/09/08 01:10:56;;;;;;;7.63;6.57;;;;;18.60;98759.00;;;;4939915;29;20062;-66
2023/09/08 01:13:22;;;;;;;8.18;6.78;;;;;18.60;98768.00;;;;4939872;29;20456;-67
2023/09/08 01:15:49;;;;;;;8.13;7.05;;;;;18.50;98763.00;;;;4938826;29;20075;-65
2023/09/08 01:18:16;;;;;;;6.70;6.10;;;;;18.50;98771.00;;;;4923964;29;20058;-66
2023/09/08 01:21:12;;;;;;;7.18;5.93;;;;;18.40;98762.00;;;;4939711;29;20517;-65
2023/09/08 01:23:57;;;;;;;8.07;6.65;;;;;18.50;98763.00;;;;4939214;29;20090;-65
2023/09/08 01:26:30;;;;;;;9.18;6.53;;;;;18.50;98762.00;;;;4939700;29;20098;-65
2023/09/08 01:28:57;;;;;;;11.25;6.63;;;;;18.50;98767.00;;;;4940945;29;20091;-65
2023/09/08 01:31:24;;;;;;;8.25;6.60;;;;;18.60;98762.00;;;;4939696;29;20599;-66
2023/09/08 01:33:51;;;;;;;8.57;7.10;;;;;18.60;98764.00;;;;4936607;29;20057;-66
2023/09/08 01:36:17;;;;;;;7.03;6.32;;;;;18.60;98773.00;;;;4936717;29;20058;-65
2023/09/08 01:38:44;;;;;;;7.70;6.47;;;;;18.60;98775.00;;;;4938388;29;20043;-65
2023/09/08 01:41:11;;;;;;;11.50;6.68;;;;;18.60;98765.00;;;;4937120;29;20150;-66
2023/09/08 01:43:38;;;;;;;8.70;6.38;;;;;18.50;98765.00;;;;4920271;29;20138;-65
2023/09/08 01:46:06;;;;;;;6.97;6.22;;;;;18.40;98763.00;;;;4936543;29;20070;-65
2023/09/08 01:48:32;;;;;;;11.07;6.70;;;;;18.40;98765.00;;;;4936438;29;20043;-65
2023/09/08 01:50:59;;;;;;;10.52;6.97;;;;;18.30;98755.00;;;;4936091;29;20052;-66
2023/09/08 01:53:26;;;;;;;8.23;7.03;;;;;18.10;98760.00;;;;4919893;29;20099;-65
2023/09/08 01:55:52;;;;;;;10.10;7.13;;;;;18.00;98767.00;;;;4936186;29;20053;-65
2023/09/08 01:58:19;;;;;;;11.40;6.82;;;;;17.80;98758.00;;;;4920419;29;20079;-65
2023/09/08 02:00:52;;;;;;;11.07;6.68;;;;;17.90;98755.00;;;;4936293;29;20505;-66
2023/09/08 02:03:19;;;;;;;8.57;6.57;;;;;17.90;98760.00;;;;4936228;29;20060;-66
2023/09/08 02:05:45;;;;;;;7.90;7.10;;;;;17.90;98763.00;;;;4935560;29;20052;-65
2023/09/08 02:08:13;;;;;;;7.38;6.57;;;;;17.90;98762.00;;;;4937130;29;20130;-66
2023/09/08 02:10:40;;;;;;;8.85;6.35;;;;;17.90;98763.00;;;;4920498;29;20115;-66
2023/09/08 02:13:07;;;;;;;8.93;6.30;;;;;17.80;98767.00;;;;4935898;29;20102;-66
2023/09/08 02:15:36;;;;;;;10.10;7.22;;;;;17.80;98763.00;;;;4936186;29;20139;-66
2023/09/08 02:18:04;;;;;;;8.15;6.85;;;;;17.90;98758.00;;;;4936010;29;20449;-65
2023/09/08 02:20:30;;;;;;;9.73;6.85;;;;;17.90;98762.00;;;;4935906;29;20519;-66
2023/09/08 02:22:58;;;;;;;8.15;7.18;;;;;17.80;98754.00;;;;4935622;29;20432;-66
2023/09/08 02:25:24;;;;;;;10.52;6.68;;;;;17.70;98761.00;;;;4934980;29;20052;-65
2023/09/08 02:27:51;;;;;;;11.40;7.78;;;;;17.70;98746.00;;;;4935495;29;20048;-66
2023/09/08 02:30:18;;;;;;;8.88;6.63;;;;;17.60;98750.00;;;;4919985;29;20517;-65
2023/09/08 02:32:45;;;;;;;8.52;7.07;;;;;17.60;98755.00;;;;4937008;29;20040;-66
2023/09/08 02:35:13;;;;;;;7.35;6.35;;;;;17.70;98753.00;;;;4935054;29;20057;-66
2023/09/08 02:37:40;;;;;;;8.73;7.35;;;;;17.60;98754.00;;;;4935319;29;20158;-65
2023/09/08 02:40:07;;;;;;;9.05;6.80;;;;;17.50;98756.00;;;;4919693;29;20142;-66
2023/09/08 02:42:35;;;;;;;12.10;7.40;;;;;17.50;98758.00;;;;4935349;29;20059;-66
2023/09/08 02:45:02;;;;;;;8.68;7.22;;;;;17.50;98762.00;;;;4934050;29;20055;-66
2023/09/08 02:47:28;;;;;;;7.13;6.43;;;;;17.50;98760.00;;;;4936531;29;20164;-65
2023/09/08 02:49:58;;;;;;;9.05;7.30;;;;;17.50;98760.00;;;;4935550;29;20476;-66
2023/09/08 02:52:24;;;;;;;9.15;6.85;;;;;17.50;98761.00;;;;4936868;29;20501;-66
2023/09/08 02:54:51;;;;;;;7.28;6.57;;;;;17.40;98764.00;;;;4934665;29;20048;-66
2023/09/08 02:57:18;;;;;;;7.97;6.65;;;;;17.30;98758.00;;;;4920027;29;20063;-66
2023/09/08 02:59:49;;;;;;;9.60;6.72;;;;;17.30;98756.00;;;;4936018;29;20139;-66
2023/09/08 03:02:16;;;;;;;7.63;6.53;;;;;17.20;98756.00;;;;4920368;29;20070;-65
2023/09/08 03:04:43;;;;;;;10.63;6.43;;;;;17.10;98763.00;;;;4934952;29;20497;-65
2023/09/08 03:07:11;;;;;;;8.40;7.50;;;;;17.00;98759.00;;;;4919873;29;20513;-65
2023/09/08 03:09:37;;;;;;;12.50;7.10;;;;;17.00;98760.00;;;;4935151;29;20048;-66
2023/09/08 03:12:04;;;;;;;10.35;7.05;;;;;17.00;98762.00;;;;4937848;29;20099;-66
2023/09/08 03:14:31;;;;;;;8.50;7.18;;;;;16.90;98757.00;;;;4936096;29;20048;-65
2023/09/08 03:16:57;;;;;;;7.40;6.60;;;;;16.90;98755.00;;;;4935046;29;20059;-65
2023/09/08 03:19:24;;;;;;;7.13;6.38;;;;;16.90;98761.00;;;;4935843;29;20059;-67
2023/09/08 03:21:51;;;;;;;10.90;6.93;;;;;16.90;98768.00;;;;4934663;29;20047;-65
2023/09/08 03:24:17;;;;;;;8.65;7.70;;;;;16.90;98762.00;;;;4918051;29;20151;-66
2023/09/08 03:26:44;;;;;;;6.88;6.18;;;;;16.90;98759.00;;;;4934346;29;20080;-66
2023/09/08 03:29:11;;;;;;;8.43;7.13;;;;;16.90;98753.00;;;;4934368;29;20142;-66
2023/09/08 03:31:37;;;;;;;9.48;6.55;;;;;16.90;98761.00;;;;4935606;29;20075;-66
2023/09/08 03:34:04;;;;;;;8.32;6.18;;;;;16.90;98765.00;;;;4933663;29;20047;-66
2023/09/08 03:36:35;;;;;;;7.65;6.60;;;;;16.90;98768.00;;;;4935428;29;20505;-65
2023/09/08 03:39:03;;;;;;;8.98;7.20;;;;;16.80;98762.00;;;;4934147;29;20052;-66
2023/09/08 03:41:29;;;;;;;8.70;6.78;;;;;16.80;98763.00;;;;4935409;29;20083;-65
2023/09/08 03:43:57;;;;;;;8.90;6.15;;;;;16.70;98761.00;;;;4930159;29;20058;-65
2023/09/08 03:46:25;;;;;;;8.70;7.47;;;;;16.70;98764.00;;;;4915040;29;20469;-65
2023/09/08 03:48:54;;;;;;;10.20;6.40;;;;;16.70;98754.00;;;;4915047;29;20075;-65
2023/09/08 03:51:21;;;;;;;9.20;6.75;;;;;16.70;98762.00;;;;4899410;29;20060;-66
2023/09/08 03:53:47;;;;;;;9.43;7.00;;;;;16.70;98757.00;;;;4915554;29;20048;-66
2023/09/08 03:56:14;;;;;;;9.40;6.43;;;;;16.60;98754.00;;;;4914107;29;20104;-66
2023/09/08 03:58:40;;;;;;;9.77;7.07;;;;;16.60;98746.00;;;;4899301;29;20052;-66
2023/09/08 04:01:07;;;;;;;7.78;6.65;;;;;16.60;98755.00;;;;4916108;29;20048;-66
2023/09/08 04:03:34;;;;;;;11.80;6.70;;;;;16.60;98752.00;;;;4915549;29;20078;-66
2023/09/08 04:06:01;;;;;;;7.78;6.78;;;;;16.60;98756.00;;;;4914906;29;20075;-65
2023/09/08 04:08:28;;;;;;;8.32;6.60;;;;;16.60;98753.00;;;;4899231;29;20055;-65
2023/09/08 04:10:55;;;;;;;8.00;6.55;;;;;16.50;98760.00;;;;4916156;29;20063;-66
2023/09/08 04:13:21;;;;;;;7.82;7.05;;;;;16.60;98751.00;;;;4914884;29;20056;-66
2023/09/08 04:15:48;;;;;;;12.73;9.50;;;;;16.60;98756.00;;;;4930231;29;20079;-65
2023/09/08 04:18:15;;;;;;;11.95;7.32;;;;;16.70;98754.00;;;;4899052;29;20051;-65
2023/09/08 04:20:42;;;;;;;8.18;6.68;;;;;16.70;98752.00;;;;4914643;29;20557;-67
2023/09/08 04:23:09;;;;;;;7.18;6.47;;;;;16.70;98746.00;;;;4914748;29;20528;-65
2023/09/08 04:25:36;;;;;;;9.50;6.88;;;;;16.60;98749.00;;;;4914217;29;20056;-66
2023/09/08 04:28:04;;;;;;;8.23;7.03;;;;;16.60;98750.00;;;;4915805;29;20092;-66
2023/09/08 04:30:31;;;;;;;7.82;7.03;;;;;16.60;98752.00;;;;4914533;29;20048;-65
2023/09/08 04:32:58;;;;;;;10.55;6.90;;;;;16.60;98756.00;;;;4915972;29;20048;-65
2023/09/08 04:35:25;;;;;;;8.98;7.28;;;;;16.50;98758.00;;;;4915218;29;20059;-65
2023/09/08 04:37:53;;;;;;;8.95;6.40;;;;;16.40;98761.00;;;;4914765;29;20490;-66
2023/09/08 04:40:20;;;;;;;10.55;7.13;;;;;16.40;98751.00;;;;4915959;29;20048;-66
2023/09/08 04:42:46;;;;;;;10.55;7.38;;;;;16.40;98760.00;;;;4914451;29;20044;-67
2023/09/08 04:45:13;;;;;;;9.88;7.30;;;;;16.40;98760.00;;;;4913583;29;20076;-66
2023/09/08 04:47:40;;;;;;;10.95;8.00;;;;;16.40;98764.00;;;;4914436;29;20423;-66
2023/09/08 04:50:08;;;;;;;12.10;8.48;;;;;16.50;98760.00;;;;4914372;29;20075;-66
2023/09/08 04:52:35;;;;;;;17.38;12.15;;;;;16.50;98761.00;;;;4915463;29;20119;-67
2023/09/08 04:55:03;;;;;;;13.75;9.82;;;;;16.50;98760.00;;;;4913691;29;20108;-67
2023/09/08 04:57:30;;;;;;;9.32;6.95;;;;;16.50;98767.00;;;;4898948;29;20516;-66
2023/09/08 04:59:58;;;;;;;13.25;11.18;;;;;16.40;98769.00;;;;4914509;29;20419;-66
2023/09/08 05:02:25;;;;;;;10.93;8.77;;;;;16.50;98767.00;;;;4914145;29;20071;-66
2023/09/08 05:04:51;;;;;;;10.70;8.32;;;;;16.50;98764.00;;;;4913646;29;20045;-67
2023/09/08 05:07:18;;;;;;;10.48;8.63;;;;;16.40;98770.00;;;;4915155;29;20044;-66
2023/09/08 05:09:46;;;;;;;12.73;9.32;;;;;16.50;98767.00;;;;4917823;29;20055;-66
2023/09/08 05:12:13;;;;;;;19.50;9.23;;;;;16.50;98763.00;;;;4902516;29;20052;-66
2023/09/08 05:14:41;;;;;;;9.75;7.90;;;;;16.60;98767.00;;;;4917374;29;20051;-66
2023/09/08 05:17:07;;;;;;;11.20;8.18;;;;;16.60;98766.00;;;;4918787;29;20044;-65
2023/09/08 05:19:34;;;;;;;7.97;7.18;;;;;16.70;98776.00;;;;4919267;29;20055;-67
2023/09/08 05:22:01;;;;;;;8.57;7.68;;;;;16.90;98776.00;;;;4918161;29;20430;-66
2023/09/08 05:24:29;;;;;;;10.98;9.00;;;;;16.90;98778.00;;;;4902000;29;20505;-66
2023/09/08 05:26:56;;;;;;;9.60;7.43;;;;;16.90;98778.00;;;;4917925;29;20052;-67
2023/09/08 05:29:23;;;;;;;9.32;7.57;;;;;17.00;98780.00;;;;4918059;29;20040;-66
2023/09/08 05:31:51;;;;;;;10.70;7.18;;;;;17.00;98780.00;;;;4902230;29;20448;-66
2023/09/08 05:34:18;;;;;;;11.65;7.53;;;;;16.90;98778.00;;;;4916814;29;20048;-66
2023/09/08 05:36:45;;;;;;;10.57;7.38;;;;;16.90;98777.00;;;;4917433;29;20398;-67
2023/09/08 05:39:14;;;;;;;7.78;6.75;;;;;17.10;98783.00;;;;4917222;29;20048;-66
2023/09/08 05:41:41;;;;;;;10.88;6.75;;;;;17.10;98787.00;;;;4917343;29;20135;-66
2023/09/08 05:44:08;;;;;;;7.57;6.75;;;;;17.10;98779.00;;;;4917940;29;20040;-66
2023/09/08 05:46:35;;;;;;;14.75;10.38;;;;;17.10;98785.00;;;;4917020;29;20073;-67
2023/09/08 05:49:02;;;;;;;11.13;9.43;;;;;17.20;98798.00;;;;4901511;29;20055;-66
2023/09/08 05:51:31;;;;;;;11.90;7.65;;;;;17.10;98798.00;;;;4917269;29;20059;-67
2023/09/08 05:53:58;;;;;;;12.25;7.70;;;;;17.30;98796.00;;;;4916362;29;20103;-68
2023/09/08 05:56:30;;;;;;;13.35;7.47;;;;;17.40;98802.00;;;;4916774;29;20458;-67
2023/09/08 05:58:58;;;;;;;8.75;7.30;;;;;17.40;98802.00;;;;4901467;29;20047;-67
2023/09/08 06:01:24;;;;;;;11.35;9.50;;;;;17.40;98794.00;;;;4901304;29;20497;-67
2023/09/08 06:03:51;;;;;;;9.13;7.70;;;;;17.40;98791.00;;;;4916084;29;20049;-67
2023/09/08 06:06:18;;;;;;;9.50;7.72;;;;;17.40;98796.00;;;;4916870;29;20048;-67
2023/09/08 06:08:45;;;;;;;9.82;7.72;;;;;17.60;98798.00;;;;4918026;29;20501;-67
2023/09/08 06:11:12;;;;;;;10.10;8.07;;;;;17.80;98785.00;;;;4916645;29;20056;-67
2023/09/08 06:13:40;;;;;;;10.73;7.60;;;;;17.90;98802.00;;;;4916075;29;20123;-67
2023/09/08 06:16:07;;;;;;;8.32;7.40;;;;;18.00;98788.00;;;;4917686;29;20395;-68
2023/09/08 06:18:39;;;;;;;14.10;10.75;;;;;18.10;98799.00;;;;4917616;29;20391;-68
2023/09/08 06:21:09;;;;;;;12.45;8.00;;;;;18.10;98806.00;;;;4916574;29;20056;-67
2023/09/08 06:23:36;;;;;;;11.52;7.72;;;;;18.30;98805.00;;;;4915819;29;20104;-68
2023/09/08 06:26:04;;;;;;;10.05;7.35;;;;;18.40;98806.00;;;;4916606;29;20048;-68
2023/09/08 06:28:32;;;;;;;8.90;7.32;;;;;18.40;98811.00;;;;4901108;29;20426;-68
2023/09/08 06:30:59;;;;;;;8.60;7.45;;;;;18.60;98816.00;;;;4900920;29;20048;-68
2023/09/08 06:33:26;;;;;;;11.73;8.00;;;;;18.60;98812.00;;;;4916132;29;20055;-68
2023/09/08 06:35:54;;;;;;;10.88;7.50;;;;;18.70;98812.00;;;;4916233;29;20054;-70
2023/09/08 06:38:21;;;;;;;9.50;6.82;;;;;18.90;98809.00;;;;4916190;29;20120;-71
2023/09/08 06:40:48;;;;;;;10.35;7.85;;;;;19.00;98817.00;;;;4916364;29;20052;-71
2023/09/08 06:43:15;;;;;;;10.93;7.53;;;;;19.00;98810.00;;;;4916159;29;20564;-70
2023/09/08 06:45:49;;;;;;;11.38;7.32;;;;;19.20;98810.00;;;;4915770;29;20513;-70
2023/09/08 06:48:16;;;;;;;12.63;7.93;;;;;19.20;98807.00;;;;4916302;29;20048;-71
2023/09/08 06:50:43;;;;;;;8.50;6.93;;;;;19.20;98806.00;;;;4916138;29;20044;-69
2023/09/08 06:53:10;;;;;;;10.10;8.00;;;;;19.30;98799.00;;;;4900473;29;20536;-71
2023/09/08 06:55:37;;;;;;;11.95;9.23;;;;;19.30;98805.00;;;;4915454;29;20131;-69
2023/09/08 06:58:04;;;;;;;12.20;8.60;;;;;19.30;98800.00;;;;4916087;29;20143;-66
2023/09/08 07:00:31;;;;;;;11.00;7.82;;;;;19.30;98801.00;;;;4916243;29;20052;-66
2023/09/08 07:02:58;;;;;;;12.02;7.78;;;;;19.60;98814.00;;;;4916118;29;20056;-65
2023/09/08 07:05:26;;;;;;;14.00;8.48;;;;;19.70;98808.00;;;;4916545;29;20048;-64
2023/09/08 07:07:52;;;;;;;15.52;7.85;;;;;19.90;98809.00;;;;4916036;29;20044;-65
2023/09/08 07:10:19;;;;;;;16.05;7.97;;;;;20.10;98814.00;;;;4916054;29;20469;-65
2023/09/08 07:12:48;;;;;;;11.85;7.85;;;;;20.20;98815.00;;;;4900854;29;20044;-65
2023/09/08 07:15:15;;;;;;;12.50;8.10;;;;;20.20;98816.00;;;;4915522;29;20438;-65
2023/09/08 07:17:42;;;;;;;10.95;7.35;;;;;20.40;98814.00;;;;4917697;29;20497;-65
2023/09/08 07:20:09;;;;;;;15.18;7.68;;;;;20.50;98818.00;;;;4916439;29;20139;-66
2023/09/08 07:22:37;;;;;;;19.65;12.75;;;;;20.60;98819.00;;;;4916867;29;20060;-65
2023/09/08 07:25:04;;;;;;;14.63;10.20;;;;;20.60;98819.00;;;;4916981;29;20040;-65
2023/09/08 07:27:31;;;;;;;14.60;9.45;;;;;20.70;98810.00;;;;4915311;29;20556;-65
2023/09/08 07:29:58;;;;;;;14.88;9.70;;;;;20.60;98821.00;;;;4915447;29;20568;-67
2023/09/08 07:32:25;;;;;;;13.38;9.38;;;;;20.60;98824.00;;;;4914588;29;20047;-65
2023/09/08 07:34:54;;;;;;;10.27;7.93;;;;;20.70;98814.00;;;;4915781;29;20651;-65
2023/09/08 07:37:23;;;;;;;13.98;8.70;;;;;20.80;98816.00;;;;4915440;29;20071;-65
2023/09/08 07:39:52;;;;;;;11.65;8.65;;;;;21.10;98828.00;;;;4915407;29;20048;-65
2023/09/08 07:42:19;;;;;;;15.48;9.15;;;;;21.20;98816.00;;;;4915353;29;20125;-65
2023/09/08 07:44:46;;;;;;;14.65;7.97;;;;;21.30;98817.00;;;;4914264;29;20107;-65
2023/09/08 07:47:12;;;;;;;19.13;9.68;;;;;21.40;98822.00;;;;4916583;29;20076;-65
2023/09/08 07:49:44;;;;;;;17.13;11.38;;;;;21.50;98823.00;;;;4914970;29;20134;-66
2023/09/08 07:52:11;;;;;;;17.20;10.07;;;;;21.60;98826.00;;;;4915085;29;20104;-65
2023/09/08 07:54:38;;;;;;;17.50;8.65;;;;;21.60;98822.00;;;;4914254;29;20051;-65
2023/09/08 07:57:04;;;;;;;10.48;6.90;;;;;21.70;98817.00;;;;4916104;29;20044;-66
2023/09/08 07:59:31;;;;;;;14.80;7.88;;;;;21.90;98818.00;;;;4914554;29;20491;-67
2023/09/08 08:02:00;;;;;;;16.23;8.13;;;;;22.10;98821.00;;;;4916166;29;20044;-67
2023/09/08 08:04:27;;;;;;;21.27;16.08;;;;;22.20;98816.00;;;;4914299;29;20163;-67
2023/09/08 08:06:53;;;;;;;15.50;10.93;;;;;22.40;98824.00;;;;4916233;29;20050;-66
2023/09/08 08:09:20;;;;;;;24.10;16.75;;;;;22.30;98816.00;;;;4915971;29;20059;-66
2023/09/08 08:11:47;;;;;;;13.38;9.05;;;;;22.40;98818.00;;;;4914902;29;20047;-65
2023/09/08 08:14:13;;;;;;;16.05;9.25;;;;;22.60;98819.00;;;;4915552;29;20052;-66
2023/09/08 08:16:40;;;;;;;17.90;8.82;;;;;22.70;98815.00;;;;4916166;29;20040;-65
2023/09/08 08:19:07;;;;;;;9.35;7.57;;;;;22.80;98818.00;;;;4916297;29;20500;-65
2023/09/08 08:21:33;;;;;;;15.18;7.30;;;;;23.00;98813.00;;;;4916593;29;20044;-65
2023/09/08 08:24:00;;;;;;;9.18;7.30;;;;;23.10;98817.00;;;;4915351;29;20044;-66
2023/09/08 08:26:29;;;;;;;10.65;8.13;;;;;23.10;98810.00;;;;4914822;29;20129;-66
2023/09/08 08:28:56;;;;;;;13.48;6.55;;;;;23.20;98810.00;;;;4914612;29;20083;-66
2023/09/08 08:31:24;;;;;;;9.48;6.63;;;;;23.30;98817.00;;;;4915017;29;20048;-66
2023/09/08 08:33:56;;;;;;;9.75;6.50;;;;;23.40;98810.00;;;;4915247;29;20134;-65
2023/09/08 08:36:23;;;;;;;12.38;6.03;;;;;23.50;98813.00;;;;4915054;29;20052;-65
2023/09/08 08:38:50;;;;;;;9.60;5.80;;;;;23.60;98805.00;;;;4899222;29;20134;-65
2023/09/08 08:41:17;;;;;;;7.03;5.78;;;;;23.80;98814.00;;;;4914679;29;20481;-66
2023/09/08 08:43:45;;;;;;;7.07;5.60;;;;;24.00;98808.00;;;;4918629;29;20084;-65
2023/09/08 08:46:13;;;;;;;10.05;8.50;;;;;24.10;98807.00;;;;4918480;29;20044;-66
2023/09/08 08:48:41;;;;;;;22.67;13.05;;;;;24.20;98808.00;;;;4902790;29;20052;-65
2023/09/08 08:51:10;;;;;;;8.20;6.47;;;;;24.30;98806.00;;;;4918453;29;20135;-66
2023/09/08 08:53:39;;;;;;;7.50;6.55;;;;;24.40;98813.00;;;;4919001;29;20079;-66
2023/09/08 08:56:08;;;;;;;8.63;6.95;;;;;24.50;98807.00;;;;4918616;29;20051;-66
2023/09/08 08:58:39;;;;;;;7.07;5.63;;;;;24.60;98809.00;;;;4918308;29;20064;-66
2023/09/08 09:01:07;;;;;;;9.30;5.30;;;;;24.80;98818.00;;;;4919303;29;20048;-66
2023/09/08 09:03:37;;;;;;;9.90;6.05;;;;;24.90;98807.00;;;;4918858;29;20072;-66
2023/09/08 09:06:04;;;;;;;9.60;5.80;;;;;25.00;98819.00;;;;4918182;29;20074;-66
2023/09/08 09:08:31;;;;;;;8.15;5.75;;;;;25.00;98817.00;;;;4918099;29;20044;-65
2023/09/08 09:10:58;;;;;;;6.88;5.25;;;;;25.10;98818.00;;;;4919460;29;20127;-65
2023/09/08 09:13:25;;;;;;;10.48;5.80;;;;;25.10;98817.00;;;;4918781;29;20127;-65
2023/09/08 09:15:58;;;;;;;6.35;4.72;;;;;25.30;98818.00;;;;4917480;29;20457;-65
2023/09/08 09:18:29;;;;;;;10.85;4.95;;;;;25.30;98819.00;;;;4918023;29;20054;-65
2023/09/08 09:20:59;;;;;;;7.55;4.70;;;;;25.40;98818.00;;;;4917951;29;20060;-65
2023/09/08 09:23:30;;;;;;;8.32;5.60;;;;;25.50;98826.00;;;;4917678;29;20115;-65
2023/09/08 09:26:03;;;;;;;9.40;6.53;;;;;25.60;98813.00;;;;4918946;29;20096;-65
2023/09/08 09:28:30;;;;;;;9.77;5.70;;;;;25.80;98815.00;;;;4918796;29;20467;-65
2023/09/08 09:30:57;;;;;;;8.27;5.13;;;;;26.00;98818.00;;;;4917580;29;20052;-65
2023/09/08 09:33:24;;;;;;;6.22;4.95;;;;;26.10;98810.00;;;;4917702;29;20393;-65
2023/09/08 09:35:52;;;;;;;7.22;4.78;;;;;26.30;98815.00;;;;4918524;29;20044;-65
2023/09/08 09:38:20;;;;;;;5.57;5.10;;;;;26.40;98811.00;;;;4918627;29;20048;-65
2023/09/08 09:40:48;;;;;;;5.72;5.13;;;;;26.30;98807.00;;;;4918626;29;20084;-65
2023/09/08 09:43:16;;;;;;;6.60;5.22;;;;;26.40;98812.00;;;;4918716;29;20054;-65
2023/09/08 09:45:44;;;;;;;6.20;5.55;;;;;26.60;98804.00;;;;4916789;29;20052;-65
2023/09/08 09:48:11;;;;;;;6.15;5.53;;;;;26.70;98802.00;;;;4918707;29;20099;-65
2023/09/08 09:50:39;;;;;;;8.57;5.38;;;;;26.70;98806.00;;;;4918616;29;20048;-65
2023/09/08 09:53:12;;;;;;;7.40;5.35;;;;;26.80;98803.00;;;;4918235;29;20055;-65
2023/09/08 09:55:40;;;;;;;;;;;;;26.90;98808.00;;;;4916282;29;20059;-65
2023/09/08 09:58:07;;;;;;;6.25;5.15;;;;;26.90;98795.00;;;;4917226;29;19927;-65
2023/09/08 10:00:35;;;;;;;7.65;4.93;;;;;27.00;98801.00;;;;4916997;29;20158;-65
2023/09/08 10:03:04;;;;;;;8.27;5.00;;;;;27.20;98796.00;;;;4917082;29;20052;-65
2023/09/08 10:05:31;;;;;;;7.45;5.90;;;;;27.30;98796.00;;;;4917897;29;20137;-64
2023/09/08 10:07:58;;;;;;;9.60;6.10;;;;;27.30;98800.00;;;;4918345;29;20115;-64
2023/09/08 10:10:28;;;;;;;8.00;5.68;;;;;27.40;98800.00;;;;4918088;29;20144;-65
2023/09/08 10:13:01;;;;;;;5.93;4.63;;;;;27.50;98793.00;;;;4918170;29;20044;-66
2023/09/08 10:15:30;;;;;;;5.65;5.05;;;;;27.50;98784.00;;;;4917138;29;20048;-65
2023/09/08 10:17:57;;;;;;;6.85;4.93;;;;;27.50;98793.00;;;;4901124;29;20059;-65
2023/09/08 10:20:26;;;;;;;5.78;4.75;;;;;27.60;98788.00;;;;4916757;29;20107;-65
2023/09/08 10:22:56;;;;;;;5.43;4.93;;;;;27.60;98791.00;;;;4901148;29;20051;-65
2023/09/08 10:25:26;;;;;;;6.22;5.22;;;;;27.70;98800.00;;;;4917166;29;20059;-65
2023/09/08 10:27:54;;;;;;;5.97;4.97;;;;;27.80;98795.00;;;;4918129;29;20087;-65
2023/09/08 10:30:22;;;;;;;6.28;5.10;;;;;27.90;98783.00;;;;4916432;29;20394;-65
2023/09/08 10:32:49;;;;;;;7.05;5.70;;;;;28.10;98794.00;;;;4916740;29;20048;-65
2023/09/08 10:35:19;;;;;;;7.18;5.30;;;;;28.10;98786.00;;;;4917171;29;20391;-65
2023/09/08 10:37:45;;;;;;;5.63;5.07;;;;;28.20;98793.00;;;;4900818;29;20107;-65
2023/09/08 10:40:33;;;;;;;8.02;6.00;;;;;28.30;98794.00;;;;4916716;29;20553;-65
2023/09/08 10:43:09;;;;;;;6.63;5.18;;;;;28.30;98791.00;;;;4916528;29;20051;-65
2023/09/08 10:45:36;;;;;;;7.15;4.85;;;;;28.40;98792.00;;;;4917084;29;20044;-65
2023/09/08 10:48:03;;;;;;;5.50;4.88;;;;;28.50;98791.00;;;;4916671;29;20137;-65
2023/09/08 10:50:33;;;;;;;6.75;4.93;;;;;28.60;98783.00;;;;4917545;29;20087;-65
2023/09/08 10:53:15;;;;;;;8.48;5.15;;;;;28.70;98786.00;;;;4916672;29;20101;-65
2023/09/08 10:55:42;;;;;;;5.43;4.93;;;;;28.80;98782.00;;;;4917175;29;20044;-66
2023/09/08 10:58:10;;;;;;;5.55;4.85;;;;;28.80;98781.00;;;;4916545;29;20048;-65
2023/09/08 11:00:45;;;;;;;7.38;6.63;;;;;28.80;98784.00;;;;4915856;29;20044;-65
2023/09/08 11:03:13;;;;;;;5.38;4.88;;;;;28.80;98783.00;;;;4901131;29;20052;-65
2023/09/08 11:05:41;;;;;;;5.60;5.00;;;;;28.90;98778.00;;;;4917120;29;20048;-65
2023/09/08 11:08:08;;;;;;;5.82;5.15;;;;;29.00;98780.00;;;;4916710;29;20055;-65
2023/09/08 11:10:34;;;;;;;7.35;5.60;;;;;29.00;98778.00;;;;4917612;29;20044;-65
2023/09/08 11:13:03;;;;;;;7.15;5.20;;;;;29.10;98778.00;;;;4917619;29;20084;-66
2023/09/08 11:15:30;;;;;;;6.85;5.70;;;;;29.20;98779.00;;;;4931619;29;20490;-65
2023/09/08 11:17:56;;;;;;;8.43;5.40;;;;;29.20;98768.00;;;;4916959;29;20051;-65
2023/09/08 11:20:27;;;;;;;6.93;5.72;;;;;29.30;98772.00;;;;4917138;29;20516;-66
2023/09/08 11:22:54;;;;;;;6.00;5.40;;;;;29.40;98771.00;;;;4916050;29;20585;-66
2023/09/08 11:25:21;;;;;;;7.20;4.80;;;;;29.50;98777.00;;;;4916462;29;20095;-65
2023/09/08 11:27:50;;;;;;;4.95;4.53;;;;;29.40;98766.00;;;;4917043;29;20525;-65
2023/09/08 11:30:17;;;;;;;5.20;4.70;;;;;29.40;98766.00;;;;4915706;29;20115;-65
2023/09/08 11:32:44;;;;;;;5.65;5.15;;;;;29.60;98769.00;;;;4917362;29;20044;-65
2023/09/08 11:35:11;;;;;;;7.15;5.20;;;;;29.70;98769.00;;;;4914930;29;20138;-65
2023/09/08 11:37:39;;;;;;;6.78;4.95;;;;;29.70;98765.00;;;;4915702;29;20044;-65
2023/09/08 11:40:12;;;;;;;5.20;4.70;;;;;29.80;98772.00;;;;4915766;29;20047;-65
2023/09/08 11:42:44;;;;;;;5.65;5.05;;;;;30.00;98771.00;;;;4900199;29;20051;-65
2023/09/08 11:45:13;;;;;;;7.78;4.75;;;;;29.90;98766.00;;;;4916012;29;20048;-65
2023/09/08 11:47:41;;;;;;;7.28;4.90;;;;;30.10;98769.00;;;;4915386;29;20498;-65
2023/09/08 11:50:15;;;;;;;4.70;4.20;;;;;30.20;98772.00;;;;4915290;29;20067;-65
2023/09/08 11:52:43;;;;;;;9.30;5.82;;;;;30.20;98763.00;;;;4916607;29;20059;-65
2023/09/08 11:55:11;;;;;;;6.20;5.60;;;;;30.10;98770.00;;;;4898839;29;20060;-65
2023/09/08 11:57:39;;;;;;;5.43;4.68;;;;;30.10;98766.00;;;;4915232;29;20051;-64
2023/09/08 12:00:08;;;;;;;9.10;4.80;;;;;30.30;98763.00;;;;4914981;29;20118;-64
2023/09/08 12:02:36;;;;;;;8.25;4.90;;;;;30.50;98760.00;;;;4916124;29;20509;-65
2023/09/08 12:05:04;;;;;;;6.90;5.10;;;;;30.60;98763.00;;;;4914457;29;20144;-64
2023/09/08 12:07:31;;;;;;;8.57;5.30;;;;;30.70;98762.00;;;;4916166;29;20785;-65
2023/09/08 12:09:58;;;;;;;6.72;4.43;;;;;30.80;98762.00;;;;4915977;29;20072;-65
2023/09/08 12:12:26;;;;;;;5.50;4.95;;;;;30.80;98754.00;;;;4916149;29;20066;-65
2023/09/08 12:14:53;;;;;;;5.68;5.15;;;;;30.80;98762.00;;;;4914359;29;20052;-65
2023/09/08 12:17:24;;;;;;;5.63;5.03;;;;;30.90;98760.00;;;;4898730;29;20502;-65